sensor_id;sensor_type;location;lat;lon;timestamp;P1;durP1;ratioP1;P2;durP2;ratioP2
16640;SDS011;8434;47.990;7.880;2023-04-28T00:00:19;1.70;;;1.43;;
16640;SDS011;8434;47.990;7.880;2023-04-28T00:03:23;5.00;;;1.80;;
16640;SDS011;8434;47.990;7.880;2023-04-28T00:06:27;1.87;;;1.60;;
16640;SDS011;8434;47.990;7.880;2023-04-28T00:09:32;3.20;;;1.80;;
16640;SDS011;8434;47.990;7.880;2023-04-28T00:12:38;2.27;;;1.70;;
16640;SDS011;8434;47.990;7.880;2023-04-28T00:15:44;2.93;;;1.70;;
16640;SDS011;8434;47.990;7.880;2023-04-28T00:18:51;2.63;;;1.43;;
16640;SDS011;8434;47.990;7.880;2023-04-28T00:21:55;2.10;;;1.60;;
16640;SDS011;8434;47.990;7.880;2023-04-28T00:24:59;1.77;;;1.50;;
16640;SDS011;8434;47.990;7.880;2023-04-28T00:28:04;2.63;;;1.60;;
16640;SDS011;8434;47.990;7.880;2023-04-28T00:31:09;3.13;;;1.97;;
16640;SDS011;8434;47.990;7.880;2023-04-28T00:34:13;2.07;;;1.63;;
16640;SDS011;8434;47.990;7.880;2023-04-28T00:37:17;2.23;;;1.37;;
16640;SDS011;8434;47.990;7.880;2023-04-28T00:40:22;1.70;;;1.60;;
16640;SDS011;8434;47.990;7.880;2023-04-28T00:43:43;1.80;;;1.60;;
16640;SDS011;8434;47.990;7.880;2023-04-28T00:46:49;2.10;;;1.53;;
16640;SDS011;8434;47.990;7.880;2023-04-28T00:49:54;2.33;;;1.60;;
16640;SDS011;8434;47.990;7.880;2023-04-28T00:52:59;3.03;;;1.70;;
16640;SDS011;8434;47.990;7.880;2023-04-28T00:56:03;2.23;;;1.73;;
16640;SDS011;8434;47.990;7.880;2023-04-28T00:59:09;3.03;;;1.90;;
16640;SDS011;8434;47.990;7.880;2023-04-28T01:02:13;2.10;;;1.57;;
16640;SDS011;8434;47.990;7.880;2023-04-28T01:05:19;2.17;;;1.60;;
16640;SDS011;8434;47.990;7.880;2023-04-28T01:08:26;2.47;;;1.70;;
16640;SDS011;8434;47.990;7.880;2023-04-28T01:11:31;1.90;;;1.70;;
16640;SDS011;8434;47.990;7.880;2023-04-28T01:14:40;2.07;;;1.60;;
16640;SDS011;8434;47.990;7.880;2023-04-28T01:17:44;3.43;;;1.90;;
16640;SDS011;8434;47.990;7.880;2023-04-28T01:20:49;1.80;;;1.37;;
16640;SDS011;8434;47.990;7.880;2023-04-28T01:23:54;3.63;;;1.87;;
16640;SDS011;8434;47.990;7.880;2023-04-28T01:26:57;3.87;;;1.70;;
16640;SDS011;8434;47.990;7.880;2023-04-28T01:30:01;2.93;;;1.97;;
16640;SDS011;8434;47.990;7.880;2023-04-28T01:33:06;2.07;;;1.70;;
16640;SDS011;8434;47.990;7.880;2023-04-28T01:36:10;1.93;;;1.70;;
16640;SDS011;8434;47.990;7.880;2023-04-28T01:39:15;3.67;;;2.03;;
16640;SDS011;8434;47.990;7.880;2023-04-28T01:42:20;2.00;;;1.80;;
16640;SDS011;8434;47.990;7.880;2023-04-28T01:45:26;3.27;;;2.03;;
16640;SDS011;8434;47.990;7.880;2023-04-28T01:48:30;4.27;;;2.17;;
16640;SDS011;8434;47.990;7.880;2023-04-28T01:51:34;2.60;;;1.80;;
16640;SDS011;8434;47.990;7.880;2023-04-28T01:58:29;3.03;;;2.17;;
16640;SDS011;8434;47.990;7.880;2023-04-28T02:01:34;2.83;;;2.13;;
16640;SDS011;8434;47.990;7.880;2023-04-28T02:04:38;2.53;;;2.33;;
16640;SDS011;8434;47.990;7.880;2023-04-28T02:07:42;3.43;;;2.37;;
16640;SDS011;8434;47.990;7.880;2023-04-28T02:10:46;4.53;;;2.93;;
16640;SDS011;8434;47.990;7.880;2023-04-28T02:13:52;3.33;;;3.03;;
16640;SDS011;8434;47.990;7.880;2023-04-28T02:16:57;6.17;;;3.80;;
16640;SDS011;8434;47.990;7.880;2023-04-28T02:20:01;6.83;;;3.20;;
16640;SDS011;8434;47.990;7.880;2023-04-28T02:23:05;5.50;;;3.33;;
16640;SDS011;8434;47.990;7.880;2023-04-28T02:26:08;5.87;;;4.00;;
16640;SDS011;8434;47.990;7.880;2023-04-28T02:29:13;4.30;;;3.47;;
16640;SDS011;8434;47.990;7.880;2023-04-28T02:32:18;6.17;;;3.80;;
16640;SDS011;8434;47.990;7.880;2023-04-28T02:35:23;6.07;;;4.00;;
16640;SDS011;8434;47.990;7.880;2023-04-28T02:38:27;5.57;;;3.90;;
16640;SDS011;8434;47.990;7.880;2023-04-28T02:41:31;4.57;;;4.17;;
16640;SDS011;8434;47.990;7.880;2023-04-28T02:44:37;4.13;;;3.73;;
16640;SDS011;8434;47.990;7.880;2023-04-28T02:47:42;5.10;;;3.67;;
16640;SDS011;8434;47.990;7.880;2023-04-28T02:50:46;6.33;;;3.83;;
16640;SDS011;8434;47.990;7.880;2023-04-28T02:53:50;4.57;;;3.77;;
16640;SDS011;8434;47.990;7.880;2023-04-28T02:56:54;5.73;;;3.87;;
16640;SDS011;8434;47.990;7.880;2023-04-28T02:59:59;5.33;;;3.67;;
16640;SDS011;8434;47.990;7.880;2023-04-28T03:03:04;4.53;;;4.13;;
16640;SDS011;8434;47.990;7.880;2023-04-28T03:06:08;5.50;;;4.33;;
16640;SDS011;8434;47.990;7.880;2023-04-28T03:09:13;7.10;;;3.80;;
16640;SDS011;8434;47.990;7.880;2023-04-28T03:12:16;5.07;;;3.77;;
16640;SDS011;8434;47.990;7.880;2023-04-28T03:15:22;8.00;;;4.63;;
16640;SDS011;8434;47.990;7.880;2023-04-28T03:18:27;8.90;;;4.50;;
16640;SDS011;8434;47.990;7.880;2023-04-28T03:21:31;5.87;;;4.20;;
16640;SDS011;8434;47.990;7.880;2023-04-28T03:24:36;6.73;;;4.47;;
16640;SDS011;8434;47.990;7.880;2023-04-28T03:27:40;8.30;;;5.20;;
16640;SDS011;8434;47.990;7.880;2023-04-28T03:30:45;9.07;;;4.90;;
16640;SDS011;8434;47.990;7.880;2023-04-28T03:33:49;7.10;;;5.00;;
16640;SDS011;8434;47.990;7.880;2023-04-28T03:36:53;7.27;;;5.30;;
16640;SDS011;8434;47.990;7.880;2023-04-28T03:39:57;7.57;;;4.73;;
16640;SDS011;8434;47.990;7.880;2023-04-28T03:43:03;5.50;;;4.70;;
16640;SDS011;8434;47.990;7.880;2023-04-28T03:46:12;8.90;;;5.10;;
16640;SDS011;8434;47.990;7.880;2023-04-28T03:49:15;7.73;;;5.30;;
16640;SDS011;8434;47.990;7.880;2023-04-28T03:52:19;8.00;;;4.90;;
16640;SDS011;8434;47.990;7.880;2023-04-28T03:55:23;6.00;;;4.63;;
16640;SDS011;8434;47.990;7.880;2023-04-28T03:58:27;8.53;;;4.93;;
16640;SDS011;8434;47.990;7.880;2023-04-28T04:01:32;5.57;;;4.80;;
16640;SDS011;8434;47.990;7.880;2023-04-28T04:04:36;7.17;;;4.83;;
16640;SDS011;8434;47.990;7.880;2023-04-28T04:07:40;7.10;;;5.27;;
16640;SDS011;8434;47.990;7.880;2023-04-28T04:10:44;7.43;;;5.40;;
16640;SDS011;8434;47.990;7.880;2023-04-28T04:13:48;6.63;;;4.70;;
16640;SDS011;8434;47.990;7.880;2023-04-28T04:16:53;7.70;;;4.80;;
16640;SDS011;8434;47.990;7.880;2023-04-28T04:19:57;8.10;;;5.00;;
16640;SDS011;8434;47.990;7.880;2023-04-28T04:23:01;9.57;;;4.77;;
16640;SDS011;8434;47.990;7.880;2023-04-28T04:26:05;7.40;;;4.70;;
16640;SDS011;8434;47.990;7.880;2023-04-28T04:29:09;5.53;;;4.47;;
16640;SDS011;8434;47.990;7.880;2023-04-28T04:32:14;6.63;;;4.70;;
16640;SDS011;8434;47.990;7.880;2023-04-28T04:35:18;6.37;;;4.43;;
16640;SDS011;8434;47.990;7.880;2023-04-28T04:38:22;5.33;;;3.80;;
16640;SDS011;8434;47.990;7.880;2023-04-28T04:41:27;5.53;;;3.90;;
16640;SDS011;8434;47.990;7.880;2023-04-28T04:44:31;8.07;;;5.43;;
16640;SDS011;8434;47.990;7.880;2023-04-28T04:47:36;4.83;;;3.40;;
16640;SDS011;8434;47.990;7.880;2023-04-28T04:50:41;4.40;;;3.27;;
16640;SDS011;8434;47.990;7.880;2023-04-28T04:53:45;5.03;;;3.20;;
16640;SDS011;8434;47.990;7.880;2023-04-28T04:56:50;5.33;;;3.40;;
16640;SDS011;8434;47.990;7.880;2023-04-28T04:59:55;5.00;;;3.57;;
16640;SDS011;8434;47.990;7.880;2023-04-28T05:03:00;3.53;;;3.00;;
16640;SDS011;8434;47.990;7.880;2023-04-28T05:06:05;3.87;;;3.20;;
16640;SDS011;8434;47.990;7.880;2023-04-28T05:09:09;3.40;;;3.10;;
16640;SDS011;8434;47.990;7.880;2023-04-28T05:12:13;4.60;;;3.67;;
16640;SDS011;8434;47.990;7.880;2023-04-28T05:15:18;5.67;;;3.60;;
16640;SDS011;8434;47.990;7.880;2023-04-28T05:18:24;3.97;;;3.50;;
16640;SDS011;8434;47.990;7.880;2023-04-28T05:21:28;4.10;;;3.03;;
16640;SDS011;8434;47.990;7.880;2023-04-28T05:24:32;3.53;;;3.13;;
16640;SDS011;8434;47.990;7.880;2023-04-28T05:27:38;4.97;;;3.20;;
16640;SDS011;8434;47.990;7.880;2023-04-28T05:30:42;6.27;;;3.07;;
16640;SDS011;8434;47.990;7.880;2023-04-28T05:33:48;4.80;;;3.53;;
16640;SDS011;8434;47.990;7.880;2023-04-28T05:36:52;4.33;;;3.20;;
16640;SDS011;8434;47.990;7.880;2023-04-28T05:39:56;3.10;;;2.50;;
16640;SDS011;8434;47.990;7.880;2023-04-28T05:43:01;3.50;;;2.53;;
16640;SDS011;8434;47.990;7.880;2023-04-28T05:46:12;3.93;;;3.10;;
16640;SDS011;8434;47.990;7.880;2023-04-28T05:49:19;5.07;;;3.33;;
16640;SDS011;8434;47.990;7.880;2023-04-28T05:52:23;3.53;;;3.03;;
16640;SDS011;8434;47.990;7.880;2023-04-28T05:55:26;3.73;;;3.07;;
16640;SDS011;8434;47.990;7.880;2023-04-28T05:58:31;3.73;;;3.10;;
16640;SDS011;8434;47.990;7.880;2023-04-28T06:01:55;3.80;;;2.87;;
16640;SDS011;8434;47.990;7.880;2023-04-28T06:05:23;4.57;;;2.93;;
16640;SDS011;8434;47.990;7.880;2023-04-28T06:08:51;3.67;;;2.97;;
16640;SDS011;8434;47.990;7.880;2023-04-28T06:12:16;3.97;;;3.10;;
16640;SDS011;8434;47.990;7.880;2023-04-28T06:15:41;3.70;;;2.67;;
16640;SDS011;8434;47.990;7.880;2023-04-28T06:19:04;3.73;;;2.73;;
16640;SDS011;8434;47.990;7.880;2023-04-28T06:37:02;5.20;;;3.47;;
16640;SDS011;8434;47.990;7.880;2023-04-28T06:39:48;3.73;;;3.27;;
16640;SDS011;8434;47.990;7.880;2023-04-28T06:42:33;4.97;;;3.07;;
16640;SDS011;8434;47.990;7.880;2023-04-28T06:45:27;3.60;;;3.30;;
16640;SDS011;8434;47.990;7.880;2023-04-28T06:48:14;3.33;;;2.97;;
16640;SDS011;8434;47.990;7.880;2023-04-28T06:51:00;3.90;;;3.40;;
16640;SDS011;8434;47.990;7.880;2023-04-28T06:53:47;5.20;;;3.03;;
16640;SDS011;8434;47.990;7.880;2023-04-28T06:56:34;3.70;;;3.30;;
16640;SDS011;8434;47.990;7.880;2023-04-28T06:59:19;5.00;;;3.73;;
16640;SDS011;8434;47.990;7.880;2023-04-28T07:02:05;4.10;;;3.23;;
16640;SDS011;8434;47.990;7.880;2023-04-28T07:04:50;4.53;;;3.60;;
16640;SDS011;8434;47.990;7.880;2023-04-28T07:07:36;3.97;;;3.10;;
16640;SDS011;8434;47.990;7.880;2023-04-28T07:10:23;3.30;;;3.00;;
16640;SDS011;8434;47.990;7.880;2023-04-28T07:13:09;4.50;;;3.20;;
16640;SDS011;8434;47.990;7.880;2023-04-28T07:15:54;4.70;;;3.00;;
16640;SDS011;8434;47.990;7.880;2023-04-28T07:18:40;3.50;;;3.20;;
16640;SDS011;8434;47.990;7.880;2023-04-28T07:21:25;3.60;;;2.57;;
16640;SDS011;8434;47.990;7.880;2023-04-28T07:24:11;4.40;;;3.40;;
16640;SDS011;8434;47.990;7.880;2023-04-28T07:26:58;3.83;;;3.10;;
16640;SDS011;8434;47.990;7.880;2023-04-28T07:29:44;10.13;;;3.70;;
16640;SDS011;8434;47.990;7.880;2023-04-28T07:32:29;3.90;;;3.30;;
16640;SDS011;8434;47.990;7.880;2023-04-28T07:35:15;3.93;;;3.27;;
16640;SDS011;8434;47.990;7.880;2023-04-28T07:38:01;2.97;;;2.67;;
16640;SDS011;8434;47.990;7.880;2023-04-28T07:40:46;4.10;;;3.20;;
16640;SDS011;8434;47.990;7.880;2023-04-28T07:43:33;3.57;;;2.93;;
16640;SDS011;8434;47.990;7.880;2023-04-28T07:46:19;3.43;;;2.93;;
16640;SDS011;8434;47.990;7.880;2023-04-28T07:49:05;3.20;;;2.90;;
16640;SDS011;8434;47.990;7.880;2023-04-28T07:51:51;3.10;;;2.80;;
16640;SDS011;8434;47.990;7.880;2023-04-28T07:54:38;3.70;;;2.90;;
16640;SDS011;8434;47.990;7.880;2023-04-28T07:57:23;2.80;;;2.50;;
16640;SDS011;8434;47.990;7.880;2023-04-28T08:00:11;2.60;;;2.33;;
16640;SDS011;8434;47.990;7.880;2023-04-28T08:02:56;2.70;;;2.50;;
16640;SDS011;8434;47.990;7.880;2023-04-28T08:05:42;3.40;;;2.70;;
16640;SDS011;8434;47.990;7.880;2023-04-28T08:08:28;2.90;;;2.60;;
16640;SDS011;8434;47.990;7.880;2023-04-28T08:11:14;2.83;;;2.53;;
16640;SDS011;8434;47.990;7.880;2023-04-28T08:13:59;2.73;;;2.40;;
16640;SDS011;8434;47.990;7.880;2023-04-28T08:16:47;4.03;;;2.50;;
16640;SDS011;8434;47.990;7.880;2023-04-28T08:19:32;4.40;;;2.83;;
16640;SDS011;8434;47.990;7.880;2023-04-28T08:22:18;3.13;;;2.60;;
16640;SDS011;8434;47.990;7.880;2023-04-28T08:25:03;4.33;;;2.33;;
16640;SDS011;8434;47.990;7.880;2023-04-28T08:27:49;2.87;;;2.50;;
16640;SDS011;8434;47.990;7.880;2023-04-28T08:30:34;3.13;;;2.67;;
16640;SDS011;8434;47.990;7.880;2023-04-28T08:33:23;3.50;;;2.73;;
16640;SDS011;8434;47.990;7.880;2023-04-28T08:36:08;4.40;;;2.67;;
16640;SDS011;8434;47.990;7.880;2023-04-28T08:38:55;4.93;;;3.70;;
16640;SDS011;8434;47.990;7.880;2023-04-28T08:41:42;2.43;;;2.23;;
16640;SDS011;8434;47.990;7.880;2023-04-28T08:44:27;3.17;;;2.70;;
16640;SDS011;8434;47.990;7.880;2023-04-28T08:47:13;2.70;;;2.50;;
16640;SDS011;8434;47.990;7.880;2023-04-28T08:50:00;2.63;;;2.43;;
16640;SDS011;8434;47.990;7.880;2023-04-28T08:52:46;2.60;;;2.40;;
16640;SDS011;8434;47.990;7.880;2023-04-28T08:55:31;2.57;;;2.37;;
16640;SDS011;8434;47.990;7.880;2023-04-28T08:58:17;2.40;;;1.93;;
16640;SDS011;8434;47.990;7.880;2023-04-28T09:01:03;2.37;;;2.00;;
16640;SDS011;8434;47.990;7.880;2023-04-28T09:03:48;2.37;;;2.17;;
16640;SDS011;8434;47.990;7.880;2023-04-28T09:06:36;1.80;;;1.70;;
16640;SDS011;8434;47.990;7.880;2023-04-28T09:09:21;3.57;;;2.07;;
16640;SDS011;8434;47.990;7.880;2023-04-28T09:12:07;2.03;;;1.83;;
16640;SDS011;8434;47.990;7.880;2023-04-28T09:14:56;3.30;;;1.60;;
16640;SDS011;8434;47.990;7.880;2023-04-28T09:17:48;2.03;;;1.87;;
16640;SDS011;8434;47.990;7.880;2023-04-28T09:20:34;2.17;;;1.97;;
16640;SDS011;8434;47.990;7.880;2023-04-28T09:23:22;3.30;;;2.10;;
16640;SDS011;8434;47.990;7.880;2023-04-28T09:26:07;1.90;;;1.80;;
16640;SDS011;8434;47.990;7.880;2023-04-28T09:28:53;2.17;;;1.90;;
16640;SDS011;8434;47.990;7.880;2023-04-28T09:32:11;1.97;;;1.87;;
16640;SDS011;8434;47.990;7.880;2023-04-28T09:34:57;2.10;;;1.90;;
16640;SDS011;8434;47.990;7.880;2023-04-28T09:37:42;1.90;;;1.50;;
16640;SDS011;8434;47.990;7.880;2023-04-28T09:40:29;1.67;;;1.57;;
16640;SDS011;8434;47.990;7.880;2023-04-28T09:43:21;1.80;;;1.70;;
16640;SDS011;8434;47.990;7.880;2023-04-28T09:46:07;2.27;;;1.83;;
16640;SDS011;8434;47.990;7.880;2023-04-28T09:48:53;2.10;;;1.90;;
16640;SDS011;8434;47.990;7.880;2023-04-28T09:51:44;2.10;;;2.00;;
16640;SDS011;8434;47.990;7.880;2023-04-28T09:54:30;1.87;;;1.77;;
16640;SDS011;8434;47.990;7.880;2023-04-28T09:57:17;2.40;;;1.80;;
16640;SDS011;8434;47.990;7.880;2023-04-28T10:00:03;2.27;;;2.10;;
16640;SDS011;8434;47.990;7.880;2023-04-28T10:02:51;2.57;;;2.37;;
16640;SDS011;8434;47.990;7.880;2023-04-28T10:05:37;1.80;;;1.70;;
16640;SDS011;8434;47.990;7.880;2023-04-28T10:08:23;1.70;;;1.60;;
16640;SDS011;8434;47.990;7.880;2023-04-28T10:11:10;2.40;;;2.20;;
16640;SDS011;8434;47.990;7.880;2023-04-28T10:13:57;1.80;;;1.70;;
16640;SDS011;8434;47.990;7.880;2023-04-28T10:16:43;2.80;;;1.90;;
16640;SDS011;8434;47.990;7.880;2023-04-28T10:19:28;4.07;;;2.67;;
16640;SDS011;8434;47.990;7.880;2023-04-28T10:22:21;2.60;;;1.97;;
16640;SDS011;8434;47.990;7.880;2023-04-28T10:25:13;3.03;;;1.70;;
16640;SDS011;8434;47.990;7.880;2023-04-28T10:28:05;2.27;;;1.90;;
16640;SDS011;8434;47.990;7.880;2023-04-28T10:31:11;2.73;;;1.57;;
16640;SDS011;8434;47.990;7.880;2023-04-28T10:33:57;1.97;;;1.53;;
16640;SDS011;8434;47.990;7.880;2023-04-28T10:37:02;2.17;;;1.70;;
16640;SDS011;8434;47.990;7.880;2023-04-28T10:42:52;2.23;;;1.80;;
16640;SDS011;8434;47.990;7.880;2023-04-28T10:45:58;1.80;;;1.70;;
16640;SDS011;8434;47.990;7.880;2023-04-28T10:51:52;1.70;;;1.57;;
16640;SDS011;8434;47.990;7.880;2023-04-28T10:54:38;1.77;;;1.67;;
16640;SDS011;8434;47.990;7.880;2023-04-28T10:57:23;1.97;;;1.43;;
16640;SDS011;8434;47.990;7.880;2023-04-28T11:03:15;1.00;;;1.00;;
16640;SDS011;8434;47.990;7.880;2023-04-28T11:06:18;1.33;;;1.00;;
16640;SDS011;8434;47.990;7.880;2023-04-28T11:12:11;0.80;;;0.77;;
16640;SDS011;8434;47.990;7.880;2023-04-28T11:14:57;0.97;;;0.90;;
16640;SDS011;8434;47.990;7.880;2023-04-28T11:17:55;0.80;;;0.80;;
16640;SDS011;8434;47.990;7.880;2023-04-28T11:20:41;1.25;;;1.00;;
16640;SDS011;8434;47.990;7.880;2023-04-28T11:23:27;1.10;;;0.90;;
16640;SDS011;8434;47.990;7.880;2023-04-28T11:26:14;0.80;;;0.80;;
16640;SDS011;8434;47.990;7.880;2023-04-28T11:29:00;1.37;;;0.80;;
16640;SDS011;8434;47.990;7.880;2023-04-28T11:31:49;0.80;;;0.80;;
16640;SDS011;8434;47.990;7.880;2023-04-28T11:34:35;1.13;;;0.90;;
16640;SDS011;8434;47.990;7.880;2023-04-28T11:37:21;0.88;;;0.77;;
16640;SDS011;8434;47.990;7.880;2023-04-28T11:40:09;0.90;;;0.90;;
16640;SDS011;8434;47.990;7.880;2023-04-28T11:42:57;0.95;;;0.70;;
16640;SDS011;8434;47.990;7.880;2023-04-28T11:45:44;7.40;;;2.13;;
16640;SDS011;8434;47.990;7.880;2023-04-28T11:48:30;0.60;;;0.60;;
16640;SDS011;8434;47.990;7.880;2023-04-28T11:51:32;1.30;;;0.88;;
16640;SDS011;8434;47.990;7.880;2023-04-28T11:54:21;0.95;;;0.60;;
16640;SDS011;8434;47.990;7.880;2023-04-28T11:57:08;0.82;;;0.60;;
16640;SDS011;8434;47.990;7.880;2023-04-28T12:00:12;1.38;;;0.52;;
16640;SDS011;8434;47.990;7.880;2023-04-28T12:03:00;0.55;;;0.55;;
16640;SDS011;8434;47.990;7.880;2023-04-28T12:05:51;0.80;;;0.80;;
16640;SDS011;8434;47.990;7.880;2023-04-28T12:08:37;0.53;;;0.53;;
16640;SDS011;8434;47.990;7.880;2023-04-28T12:11:22;0.67;;;0.50;;
16640;SDS011;8434;47.990;7.880;2023-04-28T12:14:08;0.77;;;0.50;;
16640;SDS011;8434;47.990;7.880;2023-04-28T12:16:55;1.03;;;0.77;;
16640;SDS011;8434;47.990;7.880;2023-04-28T12:19:42;0.95;;;0.70;;
16640;SDS011;8434;47.990;7.880;2023-04-28T12:22:28;0.73;;;0.70;;
16640;SDS011;8434;47.990;7.880;2023-04-28T12:25:14;0.75;;;0.60;;
16640;SDS011;8434;47.990;7.880;2023-04-28T12:28:00;0.70;;;0.70;;
16640;SDS011;8434;47.990;7.880;2023-04-28T12:30:46;1.63;;;0.80;;
16640;SDS011;8434;47.990;7.880;2023-04-28T12:33:33;0.80;;;0.80;;
16640;SDS011;8434;47.990;7.880;2023-04-28T12:36:20;1.10;;;0.90;;
16640;SDS011;8434;47.990;7.880;2023-04-28T12:39:06;1.50;;;1.17;;
16640;SDS011;8434;47.990;7.880;2023-04-28T12:41:57;1.05;;;0.85;;
16640;SDS011;8434;47.990;7.880;2023-04-28T12:44:43;2.65;;;1.70;;
16640;SDS011;8434;47.990;7.880;2023-04-28T12:47:29;2.03;;;1.20;;
16640;SDS011;8434;47.990;7.880;2023-04-28T12:50:16;0.98;;;0.98;;
16640;SDS011;8434;47.990;7.880;2023-04-28T12:53:02;1.10;;;0.93;;
16640;SDS011;8434;47.990;7.880;2023-04-28T12:55:48;3.20;;;0.90;;
16640;SDS011;8434;47.990;7.880;2023-04-28T12:58:34;2.67;;;1.23;;
16640;SDS011;8434;47.990;7.880;2023-04-28T13:01:19;1.83;;;0.95;;
16640;SDS011;8434;47.990;7.880;2023-04-28T13:04:05;1.10;;;1.00;;
16640;SDS011;8434;47.990;7.880;2023-04-28T13:06:52;3.38;;;1.20;;
16640;SDS011;8434;47.990;7.880;2023-04-28T13:09:37;2.72;;;1.20;;
16640;SDS011;8434;47.990;7.880;2023-04-28T13:12:22;1.30;;;1.20;;
16640;SDS011;8434;47.990;7.880;2023-04-28T13:15:09;1.23;;;1.00;;
16640;SDS011;8434;47.990;7.880;2023-04-28T13:17:54;0.98;;;0.85;;
16640;SDS011;8434;47.990;7.880;2023-04-28T13:20:40;1.13;;;0.90;;
16640;SDS011;8434;47.990;7.880;2023-04-28T13:23:27;1.25;;;0.85;;
16640;SDS011;8434;47.990;7.880;2023-04-28T13:26:12;2.03;;;1.00;;
16640;SDS011;8434;47.990;7.880;2023-04-28T13:28:58;1.58;;;0.90;;
16640;SDS011;8434;47.990;7.880;2023-04-28T13:31:44;1.20;;;1.10;;
16640;SDS011;8434;47.990;7.880;2023-04-28T13:34:29;0.98;;;0.88;;
16640;SDS011;8434;47.990;7.880;2023-04-28T13:37:15;1.73;;;1.10;;
16640;SDS011;8434;47.990;7.880;2023-04-28T13:40:02;0.77;;;0.77;;
16640;SDS011;8434;47.990;7.880;2023-04-28T13:42:49;1.58;;;1.20;;
16640;SDS011;8434;47.990;7.880;2023-04-28T13:45:34;2.30;;;1.10;;
16640;SDS011;8434;47.990;7.880;2023-04-28T13:48:20;2.70;;;1.17;;
16640;SDS011;8434;47.990;7.880;2023-04-28T13:51:05;2.10;;;1.30;;
16640;SDS011;8434;47.990;7.880;2023-04-28T13:53:51;1.60;;;0.95;;
16640;SDS011;8434;47.990;7.880;2023-04-28T13:56:38;1.00;;;0.90;;
16640;SDS011;8434;47.990;7.880;2023-04-28T13:59:23;1.55;;;0.90;;
16640;SDS011;8434;47.990;7.880;2023-04-28T14:02:09;2.33;;;1.55;;
16640;SDS011;8434;47.990;7.880;2023-04-28T14:04:54;1.47;;;1.10;;
16640;SDS011;8434;47.990;7.880;2023-04-28T14:07:40;1.27;;;1.10;;
16640;SDS011;8434;47.990;7.880;2023-04-28T14:10:25;1.17;;;0.90;;
16640;SDS011;8434;47.990;7.880;2023-04-28T14:13:12;2.45;;;1.08;;
16640;SDS011;8434;47.990;7.880;2023-04-28T14:15:57;1.35;;;0.80;;
16640;SDS011;8434;47.990;7.880;2023-04-28T14:18:43;1.15;;;0.82;;
16640;SDS011;8434;47.990;7.880;2023-04-28T14:21:29;1.10;;;1.00;;
16640;SDS011;8434;47.990;7.880;2023-04-28T14:24:14;0.80;;;0.80;;
16640;SDS011;8434;47.990;7.880;2023-04-28T14:27:01;2.38;;;0.85;;
16640;SDS011;8434;47.990;7.880;2023-04-28T14:29:49;1.67;;;1.33;;
16640;SDS011;8434;47.990;7.880;2023-04-28T14:32:34;1.55;;;0.90;;
16640;SDS011;8434;47.990;7.880;2023-04-28T14:35:20;1.40;;;0.80;;
16640;SDS011;8434;47.990;7.880;2023-04-28T14:38:06;1.83;;;0.90;;
16640;SDS011;8434;47.990;7.880;2023-04-28T14:40:51;0.70;;;0.70;;
16640;SDS011;8434;47.990;7.880;2023-04-28T14:43:37;3.47;;;0.90;;
16640;SDS011;8434;47.990;7.880;2023-04-28T14:46:24;2.20;;;0.87;;
16640;SDS011;8434;47.990;7.880;2023-04-28T14:49:09;1.43;;;0.80;;
16640;SDS011;8434;47.990;7.880;2023-04-28T14:51:55;1.60;;;0.90;;
16640;SDS011;8434;47.990;7.880;2023-04-28T14:54:40;0.80;;;0.80;;
16640;SDS011;8434;47.990;7.880;2023-04-28T14:57:26;1.30;;;0.90;;
16640;SDS011;8434;47.990;7.880;2023-04-28T15:00:12;0.85;;;0.70;;
16640;SDS011;8434;47.990;7.880;2023-04-28T15:02:59;1.02;;;0.85;;
16640;SDS011;8434;47.990;7.880;2023-04-28T15:05:44;7.13;;;0.95;;
16640;SDS011;8434;47.990;7.880;2023-04-28T15:08:30;0.57;;;0.55;;
16640;SDS011;8434;47.990;7.880;2023-04-28T15:11:16;2.08;;;0.80;;
16640;SDS011;8434;47.990;7.880;2023-04-28T15:14:01;0.73;;;0.73;;
16640;SDS011;8434;47.990;7.880;2023-04-28T15:16:47;1.27;;;0.68;;
16640;SDS011;8434;47.990;7.880;2023-04-28T15:19:33;2.42;;;0.80;;
16640;SDS011;8434;47.990;7.880;2023-04-28T15:22:20;1.75;;;0.90;;
16640;SDS011;8434;47.990;7.880;2023-04-28T15:25:05;0.93;;;0.60;;
16640;SDS011;8434;47.990;7.880;2023-04-28T15:27:51;0.80;;;0.80;;
16640;SDS011;8434;47.990;7.880;2023-04-28T15:30:37;2.58;;;0.77;;
16640;SDS011;8434;47.990;7.880;2023-04-28T15:33:23;2.27;;;0.80;;
16640;SDS011;8434;47.990;7.880;2023-04-28T15:36:10;1.27;;;1.10;;
16640;SDS011;8434;47.990;7.880;2023-04-28T15:38:56;0.80;;;0.70;;
16640;SDS011;8434;47.990;7.880;2023-04-28T15:41:42;2.13;;;0.80;;
16640;SDS011;8434;47.990;7.880;2023-04-28T15:44:27;0.90;;;0.80;;
16640;SDS011;8434;47.990;7.880;2023-04-28T15:47:13;0.82;;;0.70;;
16640;SDS011;8434;47.990;7.880;2023-04-28T15:49:58;2.63;;;1.00;;
16640;SDS011;8434;47.990;7.880;2023-04-28T15:52:45;1.20;;;0.73;;
16640;SDS011;8434;47.990;7.880;2023-04-28T15:55:31;1.10;;;0.70;;
16640;SDS011;8434;47.990;7.880;2023-04-28T15:58:16;1.17;;;0.50;;
16640;SDS011;8434;47.990;7.880;2023-04-28T16:01:01;1.10;;;0.80;;
16640;SDS011;8434;47.990;7.880;2023-04-28T16:03:46;0.80;;;0.80;;
16640;SDS011;8434;47.990;7.880;2023-04-28T16:06:32;0.97;;;0.70;;
16640;SDS011;8434;47.990;7.880;2023-04-28T16:09:19;0.77;;;0.60;;
16640;SDS011;8434;47.990;7.880;2023-04-28T16:12:04;3.27;;;0.93;;
16640;SDS011;8434;47.990;7.880;2023-04-28T16:14:49;1.53;;;0.70;;
16640;SDS011;8434;47.990;7.880;2023-04-28T16:17:35;0.60;;;0.57;;
16640;SDS011;8434;47.990;7.880;2023-04-28T16:20:22;0.80;;;0.80;;
16640;SDS011;8434;47.990;7.880;2023-04-28T16:23:07;1.57;;;0.60;;
16640;SDS011;8434;47.990;7.880;2023-04-28T16:25:55;1.87;;;1.30;;
16640;SDS011;8434;47.990;7.880;2023-04-28T16:28:41;1.37;;;0.60;;
16640;SDS011;8434;47.990;7.880;2023-04-28T16:31:26;2.42;;;0.80;;
16640;SDS011;8434;47.990;7.880;2023-04-28T16:34:13;1.80;;;0.60;;
16640;SDS011;8434;47.990;7.880;2023-04-28T16:36:59;0.52;;;0.47;;
16640;SDS011;8434;47.990;7.880;2023-04-28T16:39:44;1.15;;;0.77;;
16640;SDS011;8434;47.990;7.880;2023-04-28T16:42:31;0.73;;;0.60;;
16640;SDS011;8434;47.990;7.880;2023-04-28T16:45:16;0.97;;;0.60;;
16640;SDS011;8434;47.990;7.880;2023-04-28T16:48:01;0.50;;;0.50;;
16640;SDS011;8434;47.990;7.880;2023-04-28T16:50:47;1.33;;;0.70;;
16640;SDS011;8434;47.990;7.880;2023-04-28T16:53:32;0.80;;;0.60;;
16640;SDS011;8434;47.990;7.880;2023-04-28T16:56:18;0.97;;;0.43;;
16640;SDS011;8434;47.990;7.880;2023-04-28T16:59:04;1.67;;;0.60;;
16640;SDS011;8434;47.990;7.880;2023-04-28T17:01:50;1.20;;;0.68;;
16640;SDS011;8434;47.990;7.880;2023-04-28T17:04:35;0.82;;;0.63;;
16640;SDS011;8434;47.990;7.880;2023-04-28T17:07:21;0.82;;;0.50;;
16640;SDS011;8434;47.990;7.880;2023-04-28T17:10:07;0.90;;;0.50;;
16640;SDS011;8434;47.990;7.880;2023-04-28T17:12:52;1.13;;;0.53;;
16640;SDS011;8434;47.990;7.880;2023-04-28T17:15:39;0.60;;;0.50;;
16640;SDS011;8434;47.990;7.880;2023-04-28T17:18:25;1.20;;;0.50;;
16640;SDS011;8434;47.990;7.880;2023-04-28T17:21:10;0.63;;;0.63;;
16640;SDS011;8434;47.990;7.880;2023-04-28T17:23:55;1.03;;;0.60;;
16640;SDS011;8434;47.990;7.880;2023-04-28T17:26:41;1.73;;;0.90;;
16640;SDS011;8434;47.990;7.880;2023-04-28T17:29:26;0.80;;;0.80;;
16640;SDS011;8434;47.990;7.880;2023-04-28T17:32:13;0.50;;;0.50;;
16640;SDS011;8434;47.990;7.880;2023-04-28T17:34:59;2.50;;;0.70;;
16640;SDS011;8434;47.990;7.880;2023-04-28T17:37:44;0.50;;;0.50;;
16640;SDS011;8434;47.990;7.880;2023-04-28T17:40:30;2.30;;;0.60;;
16640;SDS011;8434;47.990;7.880;2023-04-28T17:43:16;2.17;;;0.80;;
16640;SDS011;8434;47.990;7.880;2023-04-28T17:46:03;1.10;;;0.70;;
16640;SDS011;8434;47.990;7.880;2023-04-28T17:48:49;2.03;;;0.70;;
16640;SDS011;8434;47.990;7.880;2023-04-28T17:51:35;1.87;;;0.77;;
16640;SDS011;8434;47.990;7.880;2023-04-28T17:54:20;0.93;;;0.90;;
16640;SDS011;8434;47.990;7.880;2023-04-28T17:57:06;0.77;;;0.77;;
16640;SDS011;8434;47.990;7.880;2023-04-28T17:59:51;2.00;;;1.40;;
16640;SDS011;8434;47.990;7.880;2023-04-28T18:02:37;4.50;;;3.40;;
16640;SDS011;8434;47.990;7.880;2023-04-28T18:05:24;1.73;;;0.90;;
16640;SDS011;8434;47.990;7.880;2023-04-28T18:08:09;4.03;;;1.87;;